createdAt,value
2022-09-12T00:01:36.514Z,59.32
2022-09-12T00:04:06.129Z,59.25
2022-09-12T00:06:37.564Z,59.36
2022-09-12T00:09:13.692Z,59.29
2022-09-12T00:11:47.103Z,59.48
2022-09-12T00:14:18.982Z,59.52
2022-09-12T00:16:47.841Z,59.52
2022-09-12T00:19:19.724Z,59.59
2022-09-12T00:21:48.896Z,59.74
2022-09-12T00:24:18.960Z,59.74
2022-09-12T00:26:48.766Z,59.84
2022-09-12T00:29:23.091Z,59.94
2022-09-12T00:31:51.911Z,60.19
2022-09-12T00:34:20.922Z,60.31
2022-09-12T00:36:52.052Z,60.38
2022-09-12T00:39:22.173Z,60.59
2022-09-12T00:41:51.636Z,60.30
2022-09-12T00:44:22.901Z,60.16
2022-09-12T00:46:59.603Z,60.44
2022-09-12T00:49:46.634Z,60.47
2022-09-12T00:52:21.000Z,60.55
2022-09-12T00:54:50.537Z,60.67
2022-09-12T00:57:24.546Z,60.73
2022-09-12T01:00:01.898Z,60.74
2022-09-12T01:02:30.921Z,60.95
2022-09-12T01:05:01.667Z,60.86
2022-09-12T01:07:31.029Z,60.88
2022-09-12T01:09:59.918Z,60.97
2022-09-12T01:12:30.411Z,61.12
2022-09-12T01:15:00.325Z,61.13
2022-09-12T01:17:43.884Z,61.05
2022-09-12T01:20:23.105Z,61.09
2022-09-12T01:23:10.327Z,61.17
2022-09-12T01:26:01.391Z,61.12
2022-09-12T01:28:40.010Z,61.16
2022-09-12T01:31:44.088Z,61.06
2022-09-12T01:34:47.480Z,61.23
2022-09-12T01:37:28.853Z,61.37
2022-09-12T01:40:17.592Z,61.36
2022-09-12T01:43:05.120Z,61.50
2022-09-12T01:45:48.691Z,61.59
2022-09-12T01:48:25.450Z,61.62
2022-09-12T01:51:05.198Z,61.58
2022-09-12T01:53:42.793Z,61.56
2022-09-12T01:56:26.376Z,61.53
2022-09-12T01:58:59.349Z,61.63
2022-09-12T02:01:39.013Z,61.67
2022-09-12T02:04:15.392Z,61.67
2022-09-12T02:07:36.176Z,61.80
2022-09-12T02:10:32.378Z,61.77
2022-09-12T02:13:10.517Z,62.01
2022-09-12T02:15:49.646Z,61.95
2022-09-12T02:18:21.588Z,61.92
2022-09-12T02:20:52.184Z,62.00
2022-09-12T02:23:25.745Z,62.06
2022-09-12T02:26:00.861Z,62.06
2022-09-12T02:28:36.531Z,62.33
2022-09-12T02:31:20.548Z,62.18
2022-09-12T02:34:03.151Z,62.28
2022-09-12T02:36:52.379Z,62.33
2022-09-12T02:39:23.159Z,62.38
2022-09-12T02:41:55.146Z,62.38
2022-09-12T02:44:26.356Z,62.27
2022-09-12T02:47:01.701Z,62.45
2022-09-12T02:49:30.371Z,62.44
2022-09-12T02:52:03.115Z,62.45
2022-09-12T02:54:33.475Z,62.21
2022-09-12T02:57:02.503Z,62.52
2022-09-12T02:59:31.171Z,62.42
2022-09-12T03:02:28.637Z,62.72
2022-09-12T03:05:17.617Z,62.65
2022-09-12T03:08:15.597Z,62.58
2022-09-12T03:10:46.936Z,62.52
2022-09-12T03:13:32.451Z,62.72
2022-09-12T03:16:20.788Z,62.94
2022-09-12T03:18:57.740Z,62.70
2022-09-12T03:21:38.844Z,62.83
2022-09-12T03:24:17.394Z,63.18
2022-09-12T03:26:55.534Z,63.04
2022-09-12T03:29:27.701Z,63.06
2022-09-12T03:31:58.193Z,63.13
2022-09-12T03:34:29.340Z,63.15
2022-09-12T03:36:58.724Z,63.31
2022-09-12T03:39:28.427Z,63.29
2022-09-12T03:41:57.672Z,63.50
2022-09-12T03:44:28.626Z,63.50
2022-09-12T03:46:57.335Z,63.49
2022-09-12T03:49:26.595Z,63.69
2022-09-12T03:51:55.211Z,63.50
2022-09-12T03:54:23.950Z,63.37
2022-09-12T03:56:53.093Z,63.73
2022-09-12T03:59:22.527Z,63.58
2022-09-12T04:01:51.151Z,63.63
2022-09-12T04:04:23.981Z,63.61
2022-09-12T04:06:57.915Z,63.82
2022-09-12T04:09:26.653Z,63.93
2022-09-12T04:11:55.336Z,63.61
2022-09-12T04:14:25.714Z,64.10
2022-09-12T04:16:57.118Z,63.93
2022-09-12T04:19:28.142Z,63.99
2022-09-12T04:21:58.146Z,64.05
2022-09-12T04:24:29.496Z,63.98
2022-09-12T04:26:58.795Z,63.86
2022-09-12T04:29:28.137Z,63.98
2022-09-12T04:31:58.335Z,64.02
2022-09-12T04:34:26.942Z,64.25
2022-09-12T04:36:55.510Z,64.12
2022-09-12T04:39:25.083Z,64.01
2022-09-12T04:41:53.884Z,63.90
2022-09-12T04:44:23.158Z,63.98
2022-09-12T04:46:53.402Z,64.05
2022-09-12T04:49:22.756Z,64.10
2022-09-12T04:51:53.872Z,64.10
2022-09-12T04:54:22.862Z,64.21
2022-09-12T04:56:52.983Z,64.26
2022-09-12T04:59:23.921Z,64.22
2022-09-12T05:01:52.873Z,64.18
2022-09-12T05:04:23.646Z,64.31
2022-09-12T05:06:53.495Z,64.34
2022-09-12T05:09:23.185Z,64.36
2022-09-12T05:12:09.696Z,64.27
2022-09-12T05:14:38.427Z,64.59
2022-09-12T05:17:07.079Z,64.41
2022-09-12T05:19:35.747Z,64.37
2022-09-12T05:22:07.196Z,64.52
2022-09-12T05:24:47.261Z,64.83
2022-09-12T05:27:20.478Z,64.90
2022-09-12T05:29:50.366Z,64.90
2022-09-12T05:32:21.230Z,64.94
2022-09-12T05:34:50.220Z,64.92
2022-09-12T05:37:19.010Z,65.08
2022-09-12T05:39:49.013Z,65.21
2022-09-12T05:42:19.054Z,65.32
2022-09-12T05:44:47.744Z,65.30
2022-09-12T05:47:18.454Z,65.40
2022-09-12T05:49:48.434Z,65.55
2022-09-12T05:52:18.103Z,65.32
2022-09-12T05:54:48.844Z,65.33
2022-09-12T05:57:20.085Z,65.20
2022-09-12T05:59:51.145Z,65.53
2022-09-12T06:02:21.091Z,65.55
2022-09-12T06:04:49.874Z,65.21
2022-09-12T06:08:08.725Z,65.20
2022-09-12T06:10:37.844Z,65.46
2022-09-12T06:13:07.134Z,65.32
2022-09-12T06:15:36.405Z,65.11
2022-09-12T06:18:05.459Z,65.17
2022-09-12T06:20:37.475Z,65.18
2022-09-12T06:23:08.296Z,64.94
2022-09-12T06:25:39.272Z,64.95
2022-09-12T06:28:09.964Z,65.02
2022-09-12T06:30:38.975Z,65.13
2022-09-12T06:33:08.085Z,65.00
2022-09-12T06:35:38.624Z,65.01
2022-09-12T06:38:09.992Z,65.19
2022-09-12T06:40:46.756Z,65.14
2022-09-12T06:43:17.363Z,65.05
2022-09-12T06:45:51.609Z,64.40
2022-09-12T06:48:22.462Z,61.66
2022-09-12T06:51:05.280Z,59.37
2022-09-12T06:53:37.393Z,57.94
2022-09-12T06:56:16.505Z,57.31
2022-09-12T06:58:49.106Z,56.05
2022-09-12T07:01:24.142Z,55.02
2022-09-12T07:04:01.697Z,54.59
2022-09-12T07:06:42.034Z,54.32
2022-09-12T07:09:18.386Z,54.17
2022-09-12T07:11:47.610Z,52.90
2022-09-12T07:14:18.197Z,53.02
2022-09-12T07:16:47.856Z,53.04
2022-09-12T07:19:18.009Z,52.08
2022-09-12T07:21:48.151Z,51.89
2022-09-12T07:24:16.860Z,52.41
2022-09-12T07:26:50.382Z,51.31
2022-09-12T07:29:36.010Z,51.10
2022-09-12T07:32:08.142Z,50.57
2022-09-12T07:34:37.180Z,50.28
2022-09-12T07:37:09.763Z,50.01
2022-09-12T07:39:40.587Z,50.20
2022-09-12T07:42:09.849Z,50.00
2022-09-12T07:44:38.951Z,48.90
2022-09-12T07:47:10.411Z,48.75
2022-09-12T07:49:40.873Z,47.54
2022-09-12T07:52:11.930Z,47.73
2022-09-12T07:54:42.661Z,48.05
2022-09-12T07:57:13.008Z,48.94
2022-09-12T07:59:52.519Z,48.74
2022-09-12T08:02:22.773Z,47.71
2022-09-12T08:04:51.951Z,47.15
2022-09-12T08:07:25.682Z,45.76
2022-09-12T08:09:54.992Z,46.84
2022-09-12T08:12:24.487Z,46.73
2022-09-12T08:14:54.998Z,47.50
2022-09-12T08:17:24.723Z,47.93
2022-09-12T08:19:54.154Z,47.87
2022-09-12T08:22:24.659Z,46.79
2022-09-12T08:24:53.223Z,46.59
2022-09-12T08:27:23.186Z,46.34
2022-09-12T08:29:52.011Z,46.04
2022-09-12T08:32:21.386Z,46.32
2022-09-12T08:34:49.871Z,46.08
2022-09-12T08:37:20.144Z,45.71
2022-09-12T08:39:51.445Z,44.75
2022-09-12T08:42:47.769Z,44.80
2022-09-12T08:45:42.180Z,44.71
2022-09-12T08:48:13.081Z,44.89
2022-09-12T08:50:49.313Z,44.38
2022-09-12T08:53:23.779Z,44.78
2022-09-12T08:56:00.621Z,44.58
2022-09-12T08:58:30.341Z,44.96
2022-09-12T09:01:14.133Z,45.19
2022-09-12T09:03:50.602Z,45.09
2022-09-12T09:06:27.245Z,44.99
2022-09-12T09:09:21.829Z,44.84
2022-09-12T09:11:53.579Z,44.78
2022-09-12T09:14:48.166Z,44.73
2022-09-12T09:17:29.953Z,45.03
2022-09-12T09:20:12.760Z,45.06
2022-09-12T09:22:53.593Z,44.74
2022-09-12T09:25:47.403Z,44.67
2022-09-12T09:28:30.426Z,44.46
2022-09-12T09:31:00.115Z,44.30
2022-09-12T09:33:34.335Z,43.72
2022-09-12T09:36:32.078Z,43.46
2022-09-12T09:39:22.584Z,42.72
2022-09-12T09:41:57.204Z,42.48
2022-09-12T09:44:31.361Z,42.54
2022-09-12T09:47:01.807Z,42.48
2022-09-12T09:49:34.445Z,41.56
2022-09-12T09:52:06.266Z,41.47
2022-09-12T09:54:57.338Z,40.99
2022-09-12T09:57:34.955Z,41.68
2022-09-12T10:00:40.133Z,42.14
2022-09-12T10:03:14.862Z,41.40
2022-09-12T10:05:55.253Z,41.25
2022-09-12T10:08:28.226Z,40.73
2022-09-12T10:11:17.834Z,40.63
2022-09-12T10:14:03.522Z,40.64
2022-09-12T10:16:48.578Z,40.65
2022-09-12T10:19:26.936Z,41.22
2022-09-12T10:21:57.188Z,41.37
2022-09-12T10:24:31.550Z,41.29
2022-09-12T10:27:19.239Z,41.03
2022-09-12T10:29:56.351Z,41.28
2022-09-12T10:32:41.494Z,41.12
2022-09-12T10:35:21.546Z,41.45
2022-09-12T10:38:02.928Z,41.37
2022-09-12T10:40:43.139Z,41.20
2022-09-12T10:43:39.859Z,41.41
2022-09-12T10:46:22.841Z,41.27
2022-09-12T10:49:21.723Z,41.28
2022-09-12T10:51:53.918Z,41.55
2022-09-12T10:54:27.365Z,41.42
2022-09-12T10:57:10.425Z,41.78
2022-09-12T10:59:46.993Z,41.65
2022-09-12T11:02:23.809Z,41.73
2022-09-12T11:04:59.830Z,41.81
2022-09-12T11:07:34.908Z,41.89
2022-09-12T11:10:17.699Z,41.82
2022-09-12T11:12:49.408Z,41.99
2022-09-12T11:15:55.673Z,41.97
2022-09-12T11:18:27.475Z,41.79
2022-09-12T11:21:16.914Z,41.98
2022-09-12T11:24:10.685Z,41.89
2022-09-12T11:27:01.958Z,41.97
2022-09-12T11:29:44.071Z,41.81
2022-09-12T11:32:38.994Z,41.58
2022-09-12T11:35:28.653Z,41.47
2022-09-12T11:38:36.861Z,41.63
2022-09-12T11:41:21.147Z,41.50
2022-09-12T11:44:11.057Z,41.33
2022-09-12T11:46:43.225Z,41.58
2022-09-12T11:49:21.529Z,41.54
2022-09-12T11:52:15.753Z,41.39
2022-09-12T11:54:53.333Z,41.55
2022-09-12T11:57:40.372Z,41.46
2022-09-12T12:00:35.757Z,41.36
2022-09-12T12:03:07.692Z,40.91
2022-09-12T12:05:55.912Z,40.67
2022-09-12T12:08:27.076Z,41.09
2022-09-12T12:10:58.856Z,40.90
2022-09-12T12:13:40.659Z,40.65
2022-09-12T12:16:30.316Z,40.71
2022-09-12T12:19:07.557Z,40.70
2022-09-12T12:21:47.094Z,40.72
2022-09-12T12:24:21.730Z,41.13
2022-09-12T12:27:04.568Z,40.98
2022-09-12T12:29:58.018Z,40.85
2022-09-12T12:32:27.961Z,40.63
2022-09-12T12:35:24.141Z,40.82
2022-09-12T12:37:56.317Z,41.56
2022-09-12T12:40:28.082Z,41.57
2022-09-12T12:43:04.117Z,41.40
2022-09-12T12:45:36.380Z,41.14
2022-09-12T12:48:14.879Z,41.57
2022-09-12T12:50:43.742Z,41.16
2022-09-12T12:53:29.567Z,40.79
2022-09-12T12:55:58.700Z,40.75
2022-09-12T12:58:36.683Z,40.80
2022-09-12T13:01:23.345Z,40.73
2022-09-12T13:03:57.054Z,40.70
2022-09-12T13:06:38.093Z,40.74
2022-09-12T13:09:28.119Z,40.80
2022-09-12T13:12:02.339Z,40.99
2022-09-12T13:14:52.313Z,41.09
2022-09-12T13:17:47.600Z,41.25
2022-09-12T13:20:28.267Z,41.43
2022-09-12T13:22:59.446Z,41.52
2022-09-12T13:25:33.456Z,41.61
2022-09-12T13:28:12.672Z,41.69
2022-09-12T13:30:46.820Z,41.85
2022-09-12T13:33:19.439Z,41.87
2022-09-12T13:36:14.475Z,41.98
2022-09-12T13:39:02.656Z,41.91
2022-09-12T13:41:31.325Z,42.11
2022-09-12T13:44:02.899Z,42.26
2022-09-12T13:46:35.115Z,42.31
2022-09-12T13:49:20.691Z,42.44
2022-09-12T13:52:07.309Z,42.55
2022-09-12T13:54:39.328Z,42.66
2022-09-12T13:57:09.019Z,42.75
2022-09-12T13:59:43.078Z,42.79
2022-09-12T14:02:24.153Z,42.83
2022-09-12T14:05:13.556Z,42.84
2022-09-12T14:07:56.956Z,42.92
2022-09-12T14:10:34.150Z,42.98
2022-09-12T14:13:12.361Z,43.12
2022-09-12T14:15:47.844Z,43.16
2022-09-12T14:18:28.847Z,43.11
2022-09-12T14:21:13.188Z,43.13
2022-09-12T14:23:49.165Z,43.29
2022-09-12T14:26:19.445Z,43.51
2022-09-12T14:28:48.676Z,43.40
2022-09-12T14:31:23.960Z,43.54
2022-09-12T14:34:11.483Z,43.36
2022-09-12T14:36:50.936Z,43.23
2022-09-12T14:39:40.743Z,43.11
2022-09-12T14:42:18.700Z,43.23
2022-09-12T14:45:17.968Z,43.19
2022-09-12T14:47:54.096Z,43.34
2022-09-12T14:50:32.166Z,43.42
2022-09-12T14:53:18.201Z,43.51
2022-09-12T14:55:55.439Z,43.49
2022-09-12T14:58:29.032Z,43.58
2022-09-12T15:01:04.145Z,43.68
2022-09-12T15:03:36.368Z,43.74
2022-09-12T15:06:09.544Z,43.79
2022-09-12T15:08:42.759Z,43.78
2022-09-12T15:11:13.623Z,43.96
2022-09-12T15:13:44.806Z,43.96
2022-09-12T15:16:18.621Z,43.94
2022-09-12T15:18:47.453Z,44.05
2022-09-12T15:21:20.907Z,44.10
2022-09-12T15:23:51.314Z,44.19
2022-09-12T15:26:23.708Z,44.31
2022-09-12T15:28:52.367Z,44.47
2022-09-12T15:31:27.549Z,44.39
2022-09-12T15:34:00.708Z,44.34
2022-09-12T15:36:29.971Z,44.44
2022-09-12T15:38:59.566Z,44.62
2022-09-12T15:41:39.065Z,44.81
2022-09-12T15:44:12.889Z,45.02
2022-09-12T15:46:42.545Z,44.98
2022-09-12T15:49:11.564Z,45.06
2022-09-12T15:51:41.414Z,44.96
2022-09-12T15:54:14.552Z,45.00
2022-09-12T15:56:44.304Z,45.04
2022-09-12T15:59:13.903Z,45.04
2022-09-12T16:01:43.119Z,45.05
2022-09-12T16:04:32.302Z,45.05
2022-09-12T16:07:01.568Z,45.01
2022-09-12T16:09:30.462Z,45.01
2022-09-12T16:12:00.116Z,45.16
2022-09-12T16:14:31.500Z,45.10
2022-09-12T16:17:02.088Z,45.15
2022-09-12T16:19:31.743Z,45.17
2022-09-12T16:22:01.381Z,45.23
2022-09-12T16:24:31.613Z,45.35
2022-09-12T16:27:01.301Z,45.36
2022-09-12T16:29:30.505Z,45.60
2022-09-12T16:31:59.211Z,45.59
2022-09-12T16:34:28.016Z,45.74
2022-09-12T16:36:58.014Z,45.80
2022-09-12T16:39:27.689Z,45.83
2022-09-12T16:41:59.214Z,45.95
2022-09-12T16:44:30.969Z,45.92
2022-09-12T16:47:02.085Z,46.15
2022-09-12T16:49:30.991Z,46.29
2022-09-12T16:52:00.073Z,46.34
2022-09-12T16:54:30.829Z,46.34
2022-09-12T16:57:01.050Z,46.48
2022-09-12T16:59:31.476Z,46.59
2022-09-12T17:02:02.672Z,46.75
2022-09-12T17:04:33.862Z,46.88
2022-09-12T17:07:03.867Z,46.98
2022-09-12T17:09:37.200Z,47.10
2022-09-12T17:12:07.957Z,47.28
2022-09-12T17:14:37.895Z,47.38
2022-09-12T17:17:09.348Z,47.41
2022-09-12T17:19:39.978Z,47.52
2022-09-12T17:22:11.640Z,47.76
2022-09-12T17:24:43.787Z,47.75
2022-09-12T17:27:12.889Z,47.97
2022-09-12T17:29:43.115Z,48.07
2022-09-12T17:32:17.343Z,48.17
2022-09-12T17:34:46.445Z,48.27
2022-09-12T17:37:15.421Z,48.41
2022-09-12T17:39:44.259Z,48.47
2022-09-12T17:42:16.722Z,48.51
2022-09-12T17:44:48.641Z,48.86
2022-09-12T17:47:17.551Z,48.70
2022-09-12T17:49:48.263Z,48.94
2022-09-12T17:52:17.095Z,49.09
2022-09-12T17:54:46.676Z,49.02
2022-09-12T17:57:16.045Z,49.09
2022-09-12T17:59:46.633Z,49.24
2022-09-12T18:02:17.168Z,49.33
2022-09-12T18:04:49.062Z,49.45
2022-09-12T18:07:46.620Z,49.60
2022-09-12T18:10:15.944Z,49.78
2022-09-12T18:12:47.885Z,49.87
2022-09-12T18:15:17.700Z,50.08
2022-09-12T18:17:49.989Z,50.33
2022-09-12T18:20:20.655Z,50.35
2022-09-12T18:22:51.736Z,50.19
2022-09-12T18:25:21.304Z,50.29
2022-09-12T18:27:50.457Z,50.70
2022-09-12T18:30:23.540Z,50.63
2022-09-12T18:32:54.265Z,50.82
2022-09-12T18:35:23.803Z,50.72
2022-09-12T18:37:54.056Z,50.82
2022-09-12T18:40:24.858Z,50.87
2022-09-12T18:42:54.283Z,50.97
2022-09-12T18:45:23.986Z,51.17
2022-09-12T18:47:54.288Z,51.24
2022-09-12T18:50:25.304Z,51.35
2022-09-12T18:53:02.285Z,51.60
2022-09-12T18:55:33.994Z,51.49
2022-09-12T18:58:04.253Z,51.78
2022-09-12T19:00:33.848Z,51.84
2022-09-12T19:03:10.536Z,51.83
2022-09-12T19:05:41.708Z,52.02
2022-09-12T19:08:38.343Z,52.22
2022-09-12T19:11:12.059Z,52.25
2022-09-12T19:13:44.248Z,52.22
2022-09-12T19:16:17.041Z,52.28
2022-09-12T19:18:49.207Z,52.45
2022-09-12T19:21:25.873Z,52.39
2022-09-12T19:24:01.446Z,52.65
2022-09-12T19:26:35.242Z,52.67
2022-09-12T19:29:07.745Z,52.85
2022-09-12T19:31:38.867Z,52.84
2022-09-12T19:34:11.273Z,52.94
2022-09-12T19:36:45.368Z,53.24
2022-09-12T19:39:18.693Z,53.19
2022-09-12T19:41:50.750Z,53.30
2022-09-12T19:44:24.336Z,53.29
2022-09-12T19:46:57.453Z,53.35
2022-09-12T19:49:27.620Z,53.50
2022-09-12T19:51:56.932Z,53.51
2022-09-12T19:54:27.165Z,53.62
2022-09-12T19:56:57.900Z,53.58
2022-09-12T19:59:29.154Z,53.75
2022-09-12T20:01:58.966Z,53.84
2022-09-12T20:04:27.917Z,53.97
2022-09-12T20:07:00.827Z,53.95
2022-09-12T20:09:29.616Z,54.13
2022-09-12T20:11:58.128Z,54.29
2022-09-12T20:14:32.367Z,54.39
2022-09-12T20:17:03.955Z,54.40
2022-09-12T20:19:36.047Z,54.52
2022-09-12T20:22:05.824Z,54.34
2022-09-12T20:24:36.875Z,54.79
2022-09-12T20:27:07.149Z,54.81
2022-09-12T20:29:35.891Z,54.73
2022-09-12T20:32:04.620Z,54.63
2022-09-12T20:34:36.224Z,54.86
2022-09-12T20:37:05.662Z,54.80
2022-09-12T20:39:36.367Z,54.96
2022-09-12T20:42:06.447Z,54.98
2022-09-12T20:44:35.255Z,55.03
2022-09-12T20:47:04.046Z,55.35
2022-09-12T20:49:33.076Z,55.06
2022-09-12T20:52:03.231Z,55.13
2022-09-12T20:54:33.569Z,55.04
2022-09-12T20:57:02.195Z,55.19
2022-09-12T20:59:32.881Z,55.28
2022-09-12T21:02:02.655Z,55.28
2022-09-12T21:04:31.886Z,55.21
2022-09-12T21:07:01.937Z,55.19
2022-09-12T21:09:31.494Z,55.26
2022-09-12T21:12:00.021Z,55.41
2022-09-12T21:14:28.610Z,55.68
2022-09-12T21:16:57.388Z,56.01
2022-09-12T21:19:26.711Z,56.08
2022-09-12T21:21:55.288Z,56.12
2022-09-12T21:24:25.156Z,55.87
2022-09-12T21:26:55.701Z,56.02
2022-09-12T21:29:24.413Z,56.27
2022-09-12T21:31:54.250Z,55.99
2022-09-12T21:34:23.938Z,56.26
2022-09-12T21:36:53.892Z,55.90
2022-09-12T21:39:22.565Z,56.34
2022-09-12T21:41:51.077Z,56.27
2022-09-12T21:44:20.571Z,56.38
2022-09-12T21:46:49.113Z,56.55
2022-09-12T21:49:20.825Z,56.27
2022-09-12T21:51:50.557Z,56.23
2022-09-12T21:54:21.072Z,56.48
2022-09-12T21:56:51.979Z,56.46
2022-09-12T21:59:22.667Z,56.45
2022-09-12T22:01:51.339Z,56.38
2022-09-12T22:04:20.883Z,56.56
2022-09-12T22:06:51.159Z,56.89
2022-09-12T22:09:20.095Z,56.85
2022-09-12T22:11:50.360Z,57.00
2022-09-12T22:14:19.503Z,56.74
2022-09-12T22:16:48.452Z,57.17
2022-09-12T22:19:18.810Z,57.32
2022-09-12T22:22:06.200Z,57.23
2022-09-12T22:24:34.958Z,57.64
2022-09-12T22:27:06.445Z,57.49
2022-09-12T22:29:36.858Z,57.52
2022-09-12T22:32:06.130Z,57.63
2022-09-12T22:34:34.788Z,57.76
2022-09-12T22:37:03.510Z,57.93
2022-09-12T22:39:33.718Z,57.86
2022-09-12T22:42:04.220Z,58.10
2022-09-12T22:44:32.886Z,57.90
2022-09-12T22:47:05.483Z,58.00
2022-09-12T22:49:35.839Z,58.09
2022-09-12T22:52:04.796Z,58.47
2022-09-12T22:54:33.325Z,57.99
2022-09-12T22:57:03.263Z,57.78
2022-09-12T22:59:32.595Z,57.85
2022-09-12T23:02:01.457Z,58.09
2022-09-12T23:04:30.355Z,58.35
2022-09-12T23:07:00.285Z,58.19
2022-09-12T23:09:32.133Z,58.53
2022-09-12T23:12:04.892Z,58.24
2022-09-12T23:14:34.939Z,58.41
2022-09-12T23:17:04.075Z,58.45
2022-09-12T23:19:36.410Z,58.63
2022-09-12T23:22:05.087Z,58.34
2022-09-12T23:24:34.218Z,58.43
2022-09-12T23:27:03.100Z,58.25
2022-09-12T23:29:34.724Z,58.46
2022-09-12T23:32:05.175Z,58.25
2022-09-12T23:34:33.931Z,58.20
2022-09-12T23:37:04.284Z,58.27
2022-09-12T23:39:35.449Z,58.23
2022-09-12T23:42:05.251Z,58.46
2022-09-12T23:44:34.146Z,58.23
2022-09-12T23:47:03.787Z,58.32
2022-09-12T23:49:32.510Z,58.50
2022-09-12T23:52:02.965Z,58.52
2022-09-12T23:54:31.867Z,58.70
2022-09-12T23:57:00.632Z,58.90
2022-09-12T23:59:31.398Z,58.65
